Terminal Aerodrome Forecast
Issued by NWS

Home | Current Version | Previous Version | Text Only | Print | Product List | Glossary On
Versions: 1 2 3 4 5 6 7 8 9 10 11 12 13 14 15 16 17 18 19 20 21 22 23 24 25 26 27 28 29
000
FTUS41 KPHI 250229 AAA
TAFMIV
TAF AMD
KMIV 250229Z 2502/2524 06005KT P6SM FEW020 OVC050
      TEMPO 2504/2506 6SM BR BKN020 OVC035
     FM250600 07007KT 5SM BR OVC015
      TEMPO 2506/2508 2SM -RA BR OVC005
     FM250800 08009KT 1SM -RA BR OVC004
     FM251400 13006KT 2SM -RA BR OVC004
     FM251600 17007KT 2SM -RA BR OVC006
     FM251800 22008KT P6SM BKN015
     FM252000 23010KT P6SM BKN025=

USA.gov is the U.S. government's official web portal to all federal, state and local government web resources and services.